Eastpoint, Florida
Current Conditions -  °F | °C
As of 12:53 AM on Saturday 29 Nov 2014 (Local Time) from KAAF Reporting Station
Clear Clear  
Wind Chill: 38°   Ceiling: Unl
Heat Index: 42°   Visibility: 10mi
Dew Point: 34°   Wind: 7mph
Humidity: 73%   Direction: 60°ENE
Pressure: 30.28"   Gusts: NA
Location:  29.74°N, 84.88°W
Report Text: KAAF 290553Z AUTO 06006KT 10SM CLR 06/01 A3028 RMK AO2 SLP253 T00560011 10083 20044 58018 TSNO
Loading
Personal Weather Stations






























Interactive Weather Map New forecast layout! Learn more

10-Day Weather Forecast

Advertisements
Track Severe Weather on mobile